Time;durP1;ratioP1;P1;durP2;ratioP2;P2;SDS_P1;SDS_P2;PMS_P1;PMS_P2;Temp;Humidity;BMP_temperature;BMP_pressure;BME280_temperature;BME280_humidity;BME280_pressure;Samples;Min_cycle;Max_cycle;Signal;HPM_P1;HPM_P2
2023/06/01 00:02:52;;;;;;;12.65;5.22;;;;;;;10.77;100.00;101486.97;6026904;28;20037;-68
2023/06/01 00:05:48;;;;;;;14.67;5.50;;;;;;;10.64;100.00;101473.03;6025851;28;20033;-67
2023/06/01 00:08:43;;;;;;;13.80;5.03;;;;;;;10.66;100.00;101481.72;6024590;28;20038;-67
2023/06/01 00:11:38;;;;;;;18.70;5.67;;;;;;;10.59;100.00;101475.25;6026576;28;20453;-68
2023/06/01 00:14:34;;;;;;;13.13;5.83;;;;;;;10.55;100.00;101474.66;6027177;28;20343;-67
2023/06/01 00:17:30;;;;;;;11.80;5.22;;;;;;;10.69;100.00;101482.31;6046613;28;20083;-67
2023/06/01 00:20:28;;;;;;;13.30;5.15;;;;;;;10.77;100.00;101495.78;6017104;28;20165;-68
2023/06/01 00:23:24;;;;;;;11.95;5.65;;;;;;;10.82;100.00;101483.94;6026244;28;20041;-68
2023/06/01 00:26:19;;;;;;;16.40;5.27;;;;;;;10.87;100.00;101487.88;6027104;28;20377;-68
2023/06/01 00:29:15;;;;;;;18.00;5.80;;;;;;;10.76;100.00;101478.16;6029461;28;20040;-68
2023/06/01 00:32:10;;;;;;;11.48;5.07;;;;;;;10.81;100.00;101474.28;6049097;28;20356;-68
2023/06/01 00:35:06;;;;;;;15.03;5.47;;;;;;;10.86;100.00;101464.13;6026194;28;20022;-68
2023/06/01 00:38:01;;;;;;;13.77;4.82;;;;;;;10.96;100.00;101488.91;6025078;28;20022;-67
2023/06/01 00:40:56;;;;;;;11.57;4.83;;;;;;;10.89;100.00;101504.53;6026745;28;20544;-67
2023/06/01 00:43:51;;;;;;;9.83;4.43;;;;;;;10.63;100.00;101497.88;6025868;28;20038;-67
2023/06/01 00:46:47;;;;;;;9.77;4.33;;;;;;;10.54;100.00;101494.19;6021451;28;20026;-67
2023/06/01 00:49:42;;;;;;;9.60;3.92;;;;;;;10.41;100.00;101492.69;6026554;28;20032;-69
2023/06/01 00:52:38;;;;;;;11.80;4.83;;;;;;;10.31;100.00;101492.56;6021129;28;20037;-68
2023/06/01 00:55:34;;;;;;;11.18;4.03;;;;;;;10.22;100.00;101472.09;6025828;28;20745;-68
2023/06/01 00:58:29;;;;;;;10.38;4.15;;;;;;;10.26;100.00;101489.47;6018982;28;20049;-68
2023/06/01 01:01:25;;;;;;;9.53;4.07;;;;;;;10.26;100.00;101499.22;6014124;28;20074;-68
2023/06/01 01:04:25;;;;;;;14.68;4.03;;;;;;;10.22;100.00;101482.72;6022334;28;20262;-68
2023/06/01 01:07:51;;;;;;;13.50;4.47;;;;;;;10.24;100.00;101496.69;6024128;28;20037;-68
2023/06/01 01:11:00;;;;;;;12.63;4.47;;;;;;;10.32;100.00;101509.31;6031852;28;20483;-68
2023/06/01 01:14:01;;;;;;;10.68;4.05;;;;;;;10.19;100.00;101493.59;6012935;28;20035;-68
2023/06/01 01:17:10;;;;;;;14.13;4.47;;;;;;;10.34;100.00;101502.09;6027029;28;20041;-68
2023/06/01 01:20:15;;;;;;;10.43;4.20;;;;;;;10.07;100.00;101479.47;6041802;28;20032;-68
2023/06/01 01:23:29;;;;;;;11.55;4.22;;;;;;;10.19;100.00;101501.53;6048466;28;20469;-68
2023/06/01 01:26:36;;;;;;;16.75;4.72;;;;;;;10.22;100.00;101495.97;6049790;28;20046;-68
2023/06/01 01:29:33;;;;;;;16.33;4.43;;;;;;;10.18;100.00;101496.34;6025671;28;20030;-68
2023/06/01 01:32:28;;;;;;;9.65;3.78;;;;;;;10.18;100.00;101476.00;6039857;28;20376;-68
2023/06/01 01:35:25;;;;;;;12.95;4.30;;;;;;;10.27;100.00;101501.75;6030197;28;20076;-66
2023/06/01 01:38:20;;;;;;;8.90;3.60;;;;;;;10.34;100.00;101502.09;6028752;28;20030;-68
2023/06/01 01:41:16;;;;;;;11.97;3.53;;;;;;;10.28;100.00;101498.13;6030871;28;20034;-68
2023/06/01 01:44:12;;;;;;;9.40;3.93;;;;;;;10.29;100.00;101493.66;6030003;28;20050;-68
2023/06/01 01:47:14;;;;;;;8.65;3.78;;;;;;;10.36;100.00;101487.72;6029984;28;20109;-67
2023/06/01 01:50:10;;;;;;;14.45;3.95;;;;;;;10.42;100.00;101486.38;6028633;28;20366;-68
2023/06/01 01:53:06;;;;;;;11.07;3.78;;;;;;;10.37;99.87;101478.81;6042548;28;20029;-68
2023/06/01 01:56:03;;;;;;;9.48;3.65;;;;;;;10.29;100.00;101462.72;6040727;28;20058;-68
2023/06/01 01:58:58;;;;;;;10.45;3.63;;;;;;;10.30;100.00;101477.63;6022418;28;20029;-68
2023/06/01 02:01:54;;;;;;;13.48;3.60;;;;;;;10.39;100.00;101476.88;6028952;28;20031;-68
2023/06/01 02:04:50;;;;;;;11.48;3.70;;;;;;;10.39;100.00;101468.94;6020997;28;20454;-68
2023/06/01 02:07:45;;;;;;;11.32;4.10;;;;;;;10.22;100.00;101477.41;6038143;28;20041;-66
2023/06/01 02:10:40;;;;;;;13.00;4.63;;;;;;;10.11;100.00;101464.16;6053686;28;20052;-66
2023/06/01 02:13:36;;;;;;;8.77;3.97;;;;;;;10.20;100.00;101474.03;6036076;28;20050;-66
2023/06/01 02:16:31;;;;;;;13.13;3.87;;;;;;;10.29;100.00;101475.97;6030026;28;20038;-67
2023/06/01 02:19:27;;;;;;;10.43;3.37;;;;;;;10.31;100.00;101449.31;6027851;28;20030;-67
2023/06/01 02:22:22;;;;;;;11.25;3.90;;;;;;;10.32;100.00;101454.50;6029815;28;20034;-66
2023/06/01 02:25:19;;;;;;;13.33;4.03;;;;;;;10.28;100.00;101455.72;6029253;28;20214;-66
2023/06/01 02:28:14;;;;;;;14.55;4.20;;;;;;;10.20;100.00;101444.91;6029588;28;20276;-67
2023/06/01 02:31:10;;;;;;;10.53;4.73;;;;;;;10.26;100.00;101473.56;6029705;28;20109;-66
2023/06/01 02:34:05;;;;;;;14.23;3.70;;;;;;;10.31;100.00;101466.06;6044570;28;20257;-66
2023/06/01 02:37:00;;;;;;;9.63;3.63;;;;;;;10.28;100.00;101461.00;6056036;28;20022;-66
2023/06/01 02:39:56;;;;;;;12.43;3.77;;;;;;;10.26;100.00;101457.66;6053054;28;20032;-67
2023/06/01 02:42:52;;;;;;;11.83;4.20;;;;;;;10.28;100.00;101461.00;6042097;28;20464;-66
2023/06/01 02:45:47;;;;;;;10.57;4.10;;;;;;;10.40;100.00;101469.78;6028745;28;20070;-66
2023/06/01 02:48:42;;;;;;;11.80;4.43;;;;;;;10.33;100.00;101458.81;6029127;28;20034;-66
2023/06/01 02:51:38;;;;;;;8.30;4.20;;;;;;;10.30;100.00;101453.75;6029356;28;20018;-66
2023/06/01 02:54:33;;;;;;;13.90;4.13;;;;;;;10.27;100.00;101454.03;6028437;28;20529;-69
2023/06/01 02:57:28;;;;;;;10.50;4.10;;;;;;;10.24;100.00;101454.28;6024940;28;20034;-66
2023/06/01 03:00:24;;;;;;;16.70;4.60;;;;;;;10.34;100.00;101455.22;6026001;28;20038;-67
2023/06/01 03:03:19;;;;;;;9.43;3.93;;;;;;;10.33;100.00;101461.47;6037055;28;20057;-66
2023/06/01 03:06:17;;;;;;;9.60;4.50;;;;;;;10.25;100.00;101449.81;6036672;28;20277;-66
2023/06/01 03:09:15;;;;;;;12.02;4.18;;;;;;;10.21;100.00;101451.88;6028833;28;20382;-66
2023/06/01 03:12:10;;;;;;;9.93;4.05;;;;;;;10.22;100.00;101445.59;6027733;28;20026;-66
2023/06/01 03:15:06;;;;;;;20.07;5.63;;;;;;;10.34;100.00;101459.66;6022861;28;20034;-66
2023/06/01 03:18:01;;;;;;;19.13;4.68;;;;;;;10.29;100.00;101453.91;6035861;28;20400;-66
2023/06/01 03:20:56;;;;;;;10.30;4.40;;;;;;;10.22;100.00;101450.91;6026097;28;20042;-66
2023/06/01 03:23:52;;;;;;;11.77;4.17;;;;;;;10.22;100.00;101450.09;6027011;28;20080;-66
2023/06/01 03:26:47;;;;;;;10.30;4.17;;;;;;;10.23;100.00;101434.03;6023427;28;20285;-66
2023/06/01 03:29:42;;;;;;;11.67;4.43;;;;;;;10.36;100.00;101441.81;6022070;28;20084;-66
2023/06/01 03:32:39;;;;;;;10.10;4.23;;;;;;;10.32;100.00;101433.28;6018127;28;20038;-66
2023/06/01 03:35:34;;;;;;;13.98;4.70;;;;;;;10.29;100.00;101440.66;6026858;28;20061;-67
2023/06/01 03:38:30;;;;;;;10.25;4.10;;;;;;;10.19;100.00;101429.13;6027278;28;20034;-66
2023/06/01 03:41:25;;;;;;;15.82;4.38;;;;;;;10.16;100.00;101454.06;6027823;28;20033;-67
2023/06/01 03:44:20;;;;;;;15.40;4.30;;;;;;;10.24;100.00;101441.03;6023127;28;20027;-67
2023/06/01 03:47:16;;;;;;;13.53;4.77;;;;;;;10.26;100.00;101447.03;6006287;28;20037;-66
2023/06/01 03:50:11;;;;;;;12.53;4.57;;;;;;;10.25;100.00;101440.06;6020734;28;20039;-66
2023/06/01 03:53:06;;;;;;;10.33;4.07;;;;;;;10.30;100.00;101448.47;6025584;28;20429;-66
2023/06/01 03:56:02;;;;;;;19.43;4.40;;;;;;;10.29;100.00;101438.00;6022658;28;20297;-66
2023/06/01 03:58:58;;;;;;;15.15;4.55;;;;;;;10.20;100.00;101431.63;6023084;28;20393;-66
2023/06/01 04:01:54;;;;;;;10.18;4.18;;;;;;;10.20;100.00;101431.63;6027449;28;20034;-67
2023/06/01 04:04:49;;;;;;;11.23;4.35;;;;;;;10.29;100.00;101445.94;6025900;28;20038;-67
2023/06/01 04:07:46;;;;;;;9.85;3.60;;;;;;;10.28;100.00;101438.97;6022467;28;20035;-66
2023/06/01 04:10:41;;;;;;;12.82;4.25;;;;;;;10.26;100.00;101449.69;6013777;28;20031;-67
2023/06/01 04:13:36;;;;;;;16.37;4.87;;;;;;;10.18;100.00;101436.22;6023993;28;20057;-66
2023/06/01 04:16:32;;;;;;;13.63;4.13;;;;;;;10.19;100.00;101445.88;6026937;28;20481;-67
2023/06/01 04:19:27;;;;;;;11.18;4.50;;;;;;;10.24;100.00;101442.84;6022024;28;20038;-67
2023/06/01 04:22:22;;;;;;;11.70;3.93;;;;;;;10.22;100.00;101432.34;6027171;28;20038;-66
2023/06/01 04:25:18;;;;;;;15.07;4.33;;;;;;;10.36;100.00;101453.28;6013818;28;20442;-66
2023/06/01 04:28:13;;;;;;;10.90;4.18;;;;;;;10.36;100.00;101455.06;6017477;28;20030;-66
2023/06/01 04:31:16;;;;;;;11.60;4.10;;;;;;;10.42;100.00;101447.47;6026877;28;20038;-67
2023/06/01 04:34:12;;;;;;;12.70;4.60;;;;;;;10.47;100.00;101447.91;6017489;28;20029;-66
2023/06/01 04:37:09;;;;;;;10.45;4.20;;;;;;;10.42;99.85;101434.22;6026617;28;20066;-66
2023/06/01 04:40:09;;;;;;;10.57;3.92;;;;;;;10.53;99.97;101460.69;6028083;28;20025;-66
2023/06/01 04:43:04;;;;;;;11.65;3.70;;;;;;;10.41;100.00;101443.13;6025000;28;20109;-66
2023/06/01 04:46:03;;;;;;;10.57;4.07;;;;;;;10.40;100.00;101449.41;6025894;28;20413;-67
2023/06/01 04:49:00;;;;;;;16.27;4.38;;;;;;;10.34;100.00;101449.91;6024960;28;20035;-66
2023/06/01 04:51:56;;;;;;;10.68;4.18;;;;;;;10.38;100.00;101458.47;6022398;28;20030;-66
2023/06/01 04:54:51;;;;;;;9.93;4.05;;;;;;;10.32;100.00;101454.50;6028857;28;20393;-66
2023/06/01 04:57:46;;;;;;;10.73;4.10;;;;;;;10.28;100.00;101445.09;6023727;28;20030;-66
2023/06/01 05:00:42;;;;;;;10.07;4.27;;;;;;;10.43;100.00;101441.22;6023716;28;20049;-67
2023/06/01 05:03:37;;;;;;;11.27;5.13;;;;;;;10.38;100.00;101434.59;6024175;28;20026;-66
2023/06/01 05:06:32;;;;;;;10.77;4.40;;;;;;;10.40;100.00;101441.47;6017654;28;20061;-66
2023/06/01 05:09:28;;;;;;;10.70;3.88;;;;;;;10.33;100.00;101427.00;6038294;28;20109;-67
2023/06/01 05:12:23;;;;;;;12.03;4.63;;;;;;;10.42;100.00;101425.41;6023018;28;20030;-66
2023/06/01 05:15:19;;;;;;;10.05;4.10;;;;;;;10.41;100.00;101435.16;6027709;28;20053;-66
2023/06/01 05:18:14;;;;;;;8.93;3.58;;;;;;;10.40;100.00;101427.34;6025766;28;20038;-66
2023/06/01 05:21:10;;;;;;;9.37;3.50;;;;;;;10.27;100.00;101410.78;6016277;28;20113;-67
2023/06/01 05:24:06;;;;;;;10.57;3.70;;;;;;;10.38;100.00;101424.00;6024010;28;20623;-67
2023/06/01 05:27:01;;;;;;;10.00;3.72;;;;;;;10.42;100.00;101425.41;6025358;28;20018;-67
2023/06/01 05:29:57;;;;;;;11.03;4.53;;;;;;;10.39;100.00;101420.34;6022828;28;20058;-66
2023/06/01 05:32:52;;;;;;;9.17;4.00;;;;;;;10.49;100.00;101434.56;6025265;28;20273;-66
2023/06/01 05:35:47;;;;;;;13.87;4.17;;;;;;;10.52;100.00;101431.63;6015030;28;20126;-67
2023/06/01 05:38:42;;;;;;;8.70;3.63;;;;;;;10.80;100.00;101428.34;6042146;28;20482;-66
2023/06/01 05:41:38;;;;;;;11.53;3.50;;;;;;;10.65;100.00;101416.38;6024977;28;20052;-67
2023/06/01 05:44:33;;;;;;;10.17;3.57;;;;;;;10.61;100.00;101421.09;6024807;28;20034;-66
2023/06/01 05:47:28;;;;;;;10.30;3.40;;;;;;;10.69;99.82;101439.84;6017724;28;20117;-67
2023/06/01 05:50:24;;;;;;;8.33;2.87;;;;;;;10.69;99.61;101434.56;6014798;28;20031;-66
2023/06/01 05:53:22;;;;;;;5.70;2.58;;;;;;;10.70;99.61;101436.25;6021255;28;20069;-66
2023/06/01 05:56:18;;;;;;;5.65;2.63;;;;;;;10.80;99.90;101431.00;6024410;28;20030;-67
2023/06/01 05:59:13;;;;;;;9.80;2.50;;;;;;;10.82;99.26;101412.31;6017391;28;20042;-66
2023/06/01 06:02:09;;;;;;;8.55;2.75;;;;;;;10.90;98.31;101425.75;6014548;28;20034;-66
2023/06/01 06:05:04;;;;;;;7.32;2.95;;;;;;;10.69;97.77;101429.25;6023437;28;20022;-67
2023/06/01 06:08:01;;;;;;;6.97;2.75;;;;;;;10.76;98.30;101435.72;6028131;28;20028;-66
2023/06/01 06:10:56;;;;;;;7.22;2.47;;;;;;;10.89;97.72;101424.06;6019956;28;20026;-67
2023/06/01 06:13:51;;;;;;;10.53;2.57;;;;;;;10.83;96.94;101419.28;6020310;28;20042;-66
2023/06/01 06:16:47;;;;;;;5.70;2.77;;;;;;;10.92;95.95;101424.66;6022790;28;20032;-67
2023/06/01 06:19:43;;;;;;;10.60;2.77;;;;;;;10.84;95.54;101407.72;6008155;28;20026;-66
2023/06/01 06:22:39;;;;;;;8.75;2.75;;;;;;;10.87;95.47;101415.41;6022844;28;20085;-67
2023/06/01 06:25:36;;;;;;;8.17;2.40;;;;;;;11.00;95.36;101421.34;6028046;28;20474;-67
2023/06/01 06:28:31;;;;;;;11.60;2.78;;;;;;;11.15;94.26;101406.75;6027236;28;20281;-67
2023/06/01 06:31:27;;;;;;;7.63;2.60;;;;;;;11.24;93.62;101411.25;6032503;28;20038;-67
2023/06/01 06:34:22;;;;;;;7.97;2.33;;;;;;;11.22;93.93;101418.53;6030427;28;20093;-67
2023/06/01 06:37:17;;;;;;;10.50;2.70;;;;;;;11.22;94.10;101418.53;6027876;28;20462;-67
2023/06/01 06:40:13;;;;;;;10.37;2.90;;;;;;;11.41;93.36;101426.59;6025168;28;20536;-67
2023/06/01 06:43:08;;;;;;;6.50;2.53;;;;;;;11.41;92.72;101415.97;6024518;28;20018;-67
2023/06/01 06:46:04;;;;;;;9.30;2.78;;;;;;;11.54;92.41;101416.56;6023570;28;20033;-66
2023/06/01 06:48:59;;;;;;;8.67;2.70;;;;;;;11.76;91.47;101421.69;6021473;28;20377;-67
2023/06/01 06:51:54;;;;;;;6.43;2.60;;;;;;;11.68;90.31;101424.16;6024637;28;20062;-67
2023/06/01 06:54:49;;;;;;;7.63;2.27;;;;;;;11.72;90.93;101419.41;6026831;28;20077;-67
2023/06/01 06:57:45;;;;;;;8.20;2.80;;;;;;;11.85;90.18;101423.50;6025249;28;20026;-67
2023/06/01 07:00:40;;;;;;;10.73;2.80;;;;;;;11.88;89.84;101417.06;6020071;28;20034;-67
2023/06/01 07:03:38;;;;;;;7.07;2.55;;;;;;;11.89;90.41;101427.59;6012731;28;20497;-67
2023/06/01 07:06:33;;;;;;;8.80;2.80;;;;;;;12.02;90.67;101416.69;6025782;28;20205;-66
2023/06/01 07:09:29;;;;;;;8.68;2.67;;;;;;;12.08;90.49;101420.63;6026014;28;20022;-67
2023/06/01 07:12:24;;;;;;;9.30;3.40;;;;;;;12.01;89.88;101423.00;6022346;28;20417;-67
2023/06/01 07:15:19;;;;;;;7.67;2.83;;;;;;;12.19;89.88;101412.50;6027304;28;20022;-67
2023/06/01 07:18:14;;;;;;;8.30;2.43;;;;;;;12.24;88.12;101416.44;6024281;28;20034;-67
2023/06/01 07:21:10;;;;;;;9.60;3.60;;;;;;;12.23;87.63;101427.22;6023173;28;20027;-66
2023/06/01 07:24:05;;;;;;;13.80;3.35;;;;;;;12.05;87.98;101427.03;6018299;28;20434;-66
2023/06/01 07:27:00;;;;;;;9.70;3.25;;;;;;;12.16;88.12;101429.59;6026543;28;20030;-67
2023/06/01 07:29:56;;;;;;;11.00;3.10;;;;;;;12.23;88.08;101435.19;6030127;28;20073;-66
2023/06/01 07:32:51;;;;;;;8.13;2.97;;;;;;;12.23;87.65;101420.06;6028145;28;20093;-67
2023/06/01 07:35:47;;;;;;;5.70;2.63;;;;;;;12.23;87.01;101425.38;6024243;28;20807;-67
2023/06/01 07:38:42;;;;;;;10.30;3.30;;;;;;;12.19;86.60;101420.47;6026975;28;20478;-66
2023/06/01 07:41:39;;;;;;;5.57;2.70;;;;;;;12.42;86.29;101413.91;6028841;28;20033;-66
2023/06/01 07:44:34;;;;;;;8.43;3.53;;;;;;;12.71;85.42;101430.69;6036483;28;20265;-67
2023/06/01 07:47:30;;;;;;;7.47;3.10;;;;;;;12.60;84.95;101417.53;6020067;28;20042;-66
2023/06/01 07:50:30;;;;;;;7.45;2.95;;;;;;;12.66;84.15;101422.31;6020734;28;20269;-66
2023/06/01 07:53:26;;;;;;;;;;;;;;;12.84;84.57;101435.72;6020716;28;20019;-67
2023/06/01 07:56:22;;;;;;;9.00;3.53;;;;;;;12.97;83.78;101438.91;6035090;28;19920;-67
2023/06/01 07:59:17;;;;;;;7.72;2.85;;;;;;;12.90;83.81;101425.34;6026450;28;20373;-66
2023/06/01 08:02:13;;;;;;;8.82;3.35;;;;;;;12.98;84.42;101420.13;6026687;28;20026;-67
2023/06/01 08:05:10;;;;;;;8.63;3.05;;;;;;;12.98;84.12;101411.31;6025132;28;20105;-67
2023/06/01 08:08:05;;;;;;;9.43;2.97;;;;;;;13.06;84.03;101425.59;6023744;28;20023;-66
2023/06/01 08:11:00;;;;;;;9.17;3.20;;;;;;;12.87;84.05;101425.63;6035700;28;20046;-66
2023/06/01 08:13:59;;;;;;;11.93;3.83;;;;;;;12.87;84.88;101424.78;6024242;28;20426;-67
2023/06/01 08:16:55;;;;;;;10.45;3.20;;;;;;;13.06;85.28;101441.56;6026422;28;20034;-67
2023/06/01 08:19:52;;;;;;;8.13;3.20;;;;;;;13.01;84.57;101427.84;6022325;28;20509;-66
2023/06/01 08:22:47;;;;;;;9.05;3.33;;;;;;;12.93;85.52;101427.72;6025038;28;20117;-66
2023/06/01 08:25:45;;;;;;;11.93;3.88;;;;;;;13.04;84.34;101434.69;6019406;28;20393;-66
2023/06/01 08:28:40;;;;;;;12.57;3.38;;;;;;;13.00;84.09;101438.63;6031112;28;20141;-67
2023/06/01 08:31:36;;;;;;;10.43;3.90;;;;;;;13.13;85.22;101421.38;6025865;28;20097;-66
2023/06/01 08:34:32;;;;;;;12.10;3.42;;;;;;;13.28;82.62;101428.91;6023392;28;20046;-67
2023/06/01 08:37:27;;;;;;;8.17;3.33;;;;;;;13.10;83.15;101420.81;6027192;28;20045;-67
2023/06/01 08:40:24;;;;;;;10.60;3.57;;;;;;;13.09;83.84;101412.00;6043281;28;20376;-67
2023/06/01 08:43:20;;;;;;;11.40;3.58;;;;;;;13.08;83.01;101413.00;6022307;28;20289;-67
2023/06/01 08:46:16;;;;;;;10.25;3.58;;;;;;;13.15;82.73;101412.41;6030811;28;20105;-66
2023/06/01 08:49:12;;;;;;;11.55;3.88;;;;;;;13.18;83.29;101420.94;6020631;28;20025;-67
2023/06/01 08:52:12;;;;;;;7.90;3.25;;;;;;;13.19;82.16;101411.13;6023307;28;20080;-67
2023/06/01 08:55:08;;;;;;;10.25;3.83;;;;;;;13.39;81.41;101415.41;6016608;28;20461;-66
2023/06/01 08:58:04;;;;;;;12.98;3.50;;;;;;;13.61;79.90;101415.03;6024348;28;20030;-67
2023/06/01 09:00:59;;;;;;;10.50;3.30;;;;;;;13.64;78.87;101404.88;6024963;28;20030;-67
2023/06/01 09:03:55;;;;;;;12.68;3.80;;;;;;;13.78;79.39;101405.38;6022560;28;20076;-66
2023/06/01 09:06:50;;;;;;;12.60;3.47;;;;;;;13.66;79.79;101418.06;6020398;28;20038;-67
2023/06/01 09:09:45;;;;;;;11.57;4.00;;;;;;;13.78;79.77;101410.72;6024926;28;20042;-67
2023/06/01 09:12:51;;;;;;;7.47;3.60;;;;;;;13.83;79.61;101419.09;6031505;28;20319;-67
2023/06/01 09:15:52;;;;;;;8.32;3.20;;;;;;;14.13;77.01;101416.09;6025683;28;20022;-67
2023/06/01 09:18:52;;;;;;;8.68;2.95;;;;;;;14.44;76.63;101392.53;6020779;28;20030;-67
2023/06/01 09:21:57;;;;;;;7.50;3.00;;;;;;;14.40;76.33;101401.88;6034781;28;20029;-67
2023/06/01 09:24:58;;;;;;;6.85;3.58;;;;;;;14.28;76.83;101393.22;6022667;28;20030;-67
2023/06/01 09:27:53;;;;;;;12.18;4.45;;;;;;;14.25;77.08;101397.03;6017342;28;20066;-67
2023/06/01 09:30:49;;;;;;;10.48;3.50;;;;;;;14.32;77.38;101388.47;6022773;28;20494;-67
2023/06/01 09:34:00;;;;;;;9.52;4.10;;;;;;;14.30;77.67;101383.22;6034773;28;20507;-67
2023/06/01 09:36:55;;;;;;;10.00;3.63;;;;;;;14.18;77.62;101381.78;6037839;28;20023;-67
2023/06/01 09:39:51;;;;;;;7.20;3.38;;;;;;;14.01;78.49;101369.28;6024650;28;20038;-67
2023/06/01 09:42:49;;;;;;;10.05;3.40;;;;;;;13.96;77.91;101380.41;6018985;28;20121;-67
2023/06/01 09:45:45;;;;;;;9.77;3.22;;;;;;;14.26;77.52;101382.72;6026424;28;20033;-67
2023/06/01 09:48:42;;;;;;;8.03;3.13;;;;;;;14.10;77.62;101379.91;6027267;28;20034;-67
2023/06/01 09:51:37;;;;;;;9.43;3.22;;;;;;;14.16;78.11;101375.75;6024346;28;20316;-67
2023/06/01 09:54:33;;;;;;;9.47;2.83;;;;;;;14.29;78.02;101384.22;6029029;28;20030;-67
2023/06/01 09:57:29;;;;;;;8.75;2.50;;;;;;;14.10;79.22;101371.06;6032378;28;20420;-67
2023/06/01 10:00:24;;;;;;;7.57;2.83;;;;;;;14.13;79.44;101379.56;6027799;28;20071;-67
2023/06/01 10:03:21;;;;;;;7.18;2.70;;;;;;;14.05;79.71;101373.34;6023242;28;20397;-66
2023/06/01 10:06:16;;;;;;;8.95;3.05;;;;;;;14.10;79.24;101371.91;6024903;28;20482;-66
2023/06/01 10:09:14;;;;;;;6.43;3.23;;;;;;;14.14;79.81;101383.06;6030592;28;20037;-66
2023/06/01 10:12:09;;;;;;;8.60;2.80;;;;;;;14.22;79.99;101380.47;6028919;28;20755;-66
2023/06/01 10:15:05;;;;;;;8.90;3.33;;;;;;;14.16;79.08;101360.59;6026641;28;20026;-67
2023/06/01 10:18:02;;;;;;;6.68;2.92;;;;;;;14.32;79.28;101377.78;6029631;28;20058;-66
2023/06/01 10:20:57;;;;;;;7.28;3.08;;;;;;;14.32;78.98;101378.63;6030215;28;20026;-66
2023/06/01 10:23:53;;;;;;;6.38;3.42;;;;;;;14.21;78.82;101360.97;6040746;28;20033;-66
2023/06/01 10:27:09;;;;;;;7.40;3.28;;;;;;;14.43;78.94;101369.53;6030131;28;20036;-65
2023/06/01 10:30:07;;;;;;;8.75;3.33;;;;;;;14.45;78.93;101351.53;6028760;28;20125;-67
2023/06/01 10:33:03;;;;;;;8.00;3.83;;;;;;;14.47;78.41;101366.41;6027108;28;20351;-66
2023/06/01 10:35:58;;;;;;;10.10;4.03;;;;;;;14.49;79.16;101359.06;6031441;28;20029;-66
2023/06/01 10:39:22;;;;;;;8.75;3.20;;;;;;;14.71;77.61;101366.56;6034078;28;20045;-65
2023/06/01 10:42:17;;;;;;;8.05;3.60;;;;;;;14.76;78.65;101355.41;6014025;28;20038;-68
2023/06/01 10:45:36;;;;;;;6.30;2.80;;;;;;;14.65;78.66;101356.50;6026876;28;20037;-68
2023/06/01 10:48:52;;;;;;;7.75;2.90;;;;;;;14.68;78.47;101352.69;6037781;28;20097;-68
2023/06/01 10:51:47;;;;;;;6.28;2.70;;;;;;;14.32;79.41;101356.44;6028289;28;20378;-68
2023/06/01 10:54:42;;;;;;;9.10;2.50;;;;;;;14.42;79.81;101342.00;6026665;28;20034;-68
2023/06/01 10:57:38;;;;;;;6.40;2.67;;;;;;;14.61;79.92;101357.84;6020820;28;20037;-67
2023/06/01 11:00:39;;;;;;;6.82;2.42;;;;;;;14.58;79.15;101352.81;6018638;28;20317;-67
2023/06/01 11:03:49;;;;;;;5.25;2.00;;;;;;;14.43;79.38;101335.66;6025671;28;20035;-67
2023/06/01 11:06:45;;;;;;;5.97;1.90;;;;;;;14.95;78.32;101354.38;6024731;28;20034;-68
2023/06/01 11:09:46;;;;;;;6.65;2.40;;;;;;;14.89;77.87;101335.28;6028086;28;20090;-67
2023/06/01 11:13:17;;;;;;;4.45;2.05;;;;;;;15.01;77.37;101351.06;6027327;28;20511;-68
2023/06/01 11:16:14;;;;;;;5.93;2.22;;;;;;;14.52;80.45;101347.25;6016720;28;20427;-67
2023/06/01 11:19:10;;;;;;;5.00;1.92;;;;;;;14.37;81.68;101340.78;6023495;28;20034;-67
2023/06/01 11:22:06;;;;;;;5.85;2.58;;;;;;;14.43;82.46;101345.53;6035248;28;20030;-67
2023/06/01 11:25:04;;;;;;;5.27;2.57;;;;;;;14.24;81.27;101343.84;6022015;28;20034;-67
2023/06/01 11:28:00;;;;;;;5.28;2.20;;;;;;;14.65;79.64;101345.81;6026489;28;20851;-67
2023/06/01 11:30:56;;;;;;;5.03;2.50;;;;;;;14.87;78.81;101333.78;6027857;28;20040;-67
2023/06/01 11:33:53;;;;;;;3.85;2.10;;;;;;;15.01;76.92;101322.50;6025483;28;20366;-68
2023/06/01 11:36:50;;;;;;;6.22;2.83;;;;;;;15.13;76.99;101336.44;6027479;28;20029;-67
2023/06/01 11:39:46;;;;;;;5.78;2.40;;;;;;;14.84;76.68;101328.75;6023015;28;20038;-67
2023/06/01 11:42:42;;;;;;;5.13;2.47;;;;;;;14.67;77.34;101314.50;6020993;28;20038;-67
2023/06/01 11:45:37;;;;;;;6.43;2.70;;;;;;;14.77;77.26;101333.06;6026854;28;20038;-67
2023/06/01 11:48:34;;;;;;;5.63;2.53;;;;;;;14.95;77.11;101317.78;6027496;28;20038;-67
2023/06/01 11:51:31;;;;;;;5.85;2.40;;;;;;;15.23;75.14;101329.97;6027180;28;20030;-67
2023/06/01 11:54:28;;;;;;;3.83;1.98;;;;;;;15.57;75.71;101318.41;6018158;28;20034;-67
2023/06/01 11:57:23;;;;;;;3.95;2.20;;;;;;;15.37;75.05;101313.31;6027283;28;20517;-67
2023/06/01 12:00:19;;;;;;;5.87;1.97;;;;;;;15.50;74.33;101328.91;6026047;28;20034;-67
2023/06/01 12:03:16;;;;;;;4.93;2.35;;;;;;;15.55;73.35;101328.41;6025818;28;20030;-68
2023/06/01 12:06:30;;;;;;;3.53;2.25;;;;;;;15.19;74.76;101320.56;6025480;28;20647;-67
2023/06/01 12:09:26;;;;;;;3.72;1.83;;;;;;;15.44;73.64;101317.00;6028130;28;20042;-67
2023/06/01 12:12:23;;;;;;;4.77;1.90;;;;;;;15.93;71.33;101309.94;6019230;28;20562;-67
2023/06/01 12:15:19;;;;;;;7.07;1.92;;;;;;;15.84;71.99;101323.50;6026020;28;20069;-68
2023/06/01 12:18:14;;;;;;;2.88;1.70;;;;;;;15.23;73.87;101308.59;6027163;28;20355;-68
2023/06/01 12:21:13;;;;;;;3.60;2.00;;;;;;;15.19;73.39;101320.56;6016890;28;20038;-68
2023/06/01 12:24:08;;;;;;;3.33;1.80;;;;;;;15.24;74.39;101322.78;6022461;28;20049;-68
2023/06/01 12:27:17;;;;;;;6.50;2.30;;;;;;;15.56;72.78;101306.88;6026488;28;20119;-66
2023/06/01 12:30:22;;;;;;;4.95;2.35;;;;;;;15.31;71.79;101319.31;6024812;28;20038;-66
2023/06/01 12:33:33;;;;;;;6.70;2.42;;;;;;;15.43;70.85;101285.09;6024278;28;20474;-66
2023/06/01 12:36:34;;;;;;;6.95;2.60;;;;;;;16.04;68.98;101298.06;6029065;28;20493;-66
2023/06/01 12:39:36;;;;;;;6.72;2.75;;;;;;;15.83;68.75;101295.91;6026202;28;20053;-66
2023/06/01 12:42:39;;;;;;;6.50;2.33;;;;;;;15.92;68.53;101307.44;6027037;28;20470;-66
2023/06/01 12:45:36;;;;;;;4.18;2.47;;;;;;;15.89;69.15;101297.91;6024961;28;20113;-66
2023/06/01 12:48:33;;;;;;;7.00;2.35;;;;;;;15.91;68.90;101305.75;6019419;28;20385;-68
2023/06/01 12:51:28;;;;;;;4.07;2.17;;;;;;;16.01;69.10;101285.88;6025550;28;20036;-66
2023/06/01 12:54:24;;;;;;;6.68;2.65;;;;;;;16.44;66.08;101289.19;6024903;28;20038;-66
2023/06/01 12:57:19;;;;;;;5.60;2.40;;;;;;;16.52;65.25;101298.03;6025200;28;20034;-66
2023/06/01 13:00:15;;;;;;;7.25;2.15;;;;;;;17.06;62.77;101292.91;6026229;28;20256;-65
2023/06/01 13:03:10;;;;;;;5.32;2.33;;;;;;;17.08;62.87;101283.66;6024473;28;20430;-66
2023/06/01 13:06:06;;;;;;;3.87;2.07;;;;;;;16.66;65.61;101297.38;6024846;28;20488;-66
2023/06/01 13:09:02;;;;;;;5.38;2.33;;;;;;;16.94;63.83;101288.91;6025675;28;20030;-66
2023/06/01 13:11:58;;;;;;;5.88;2.38;;;;;;;17.73;61.56;101297.59;6024835;28;20711;-65
2023/06/01 13:14:53;;;;;;;5.63;2.30;;;;;;;17.53;59.94;101300.88;6021748;28;20025;-66
2023/06/01 13:17:48;;;;;;;4.60;2.13;;;;;;;17.21;61.27;101301.88;6025520;28;20026;-67
2023/06/01 13:20:44;;;;;;;5.03;2.77;;;;;;;17.31;61.61;101291.78;6015124;28;20030;-66
2023/06/01 13:23:39;;;;;;;5.25;2.60;;;;;;;17.03;62.52;101295.91;6021642;28;20281;-66
2023/06/01 13:26:34;;;;;;;6.28;2.60;;;;;;;16.80;64.14;101292.31;6024151;28;20448;-66
2023/06/01 13:29:30;;;;;;;7.03;2.50;;;;;;;16.77;63.56;101292.69;6025654;28;20034;-69
2023/06/01 13:32:25;;;;;;;5.30;2.58;;;;;;;17.03;64.35;101277.16;6017140;28;20277;-66
2023/06/01 13:35:21;;;;;;;7.97;2.80;;;;;;;17.70;60.88;101276.47;6023870;28;20030;-66
2023/06/01 13:38:16;;;;;;;7.15;2.40;;;;;;;17.78;59.78;101271.06;6022574;28;20042;-66